NCAR-RAP Real-Time Weather Data

Output produced by METARs form (08 May 2021  16:07 UTC)
found at http://weather.rap.ucar.edu/surface/
 
KPHP 081555Z AUTO 09019G29KT 10SM OVC039 07/01 A2981 RMK AO2 PK WND 09031/1526 SLP094 T00720011
KPHP 081455Z AUTO 08019G28KT 10SM OVC041 08/M01 A2982 RMK AO2 PK WND 09030/1423 SLP099 T00781006 53010
KPHP 081355Z AUTO 09021G27KT 10SM OVC042 08/M02 A2981 RMK AO2 PK WND 10029/1334 SLP094 T00781017
KPHP 081255Z AUTO 09017KT 10SM BKN044 OVC080 07/M01 A2979 RMK AO2 SLP084 T00671011
KPHP 081155Z AUTO 09013KT 10SM CLR 06/M02 A2979 RMK AO2 LTG DSNT NW PRESRR SLP084 T00611017 10106 20061 55008
KPHP 081055Z AUTO 09017G27KT 10SM FEW095 07/M03 A2977 RMK AO2 PK WND 09027/1052 SLP076 T00671028
KPHP 080955Z AUTO 09018G24KT 10SM BKN100 08/M04 A2979 RMK AO2 PK WND 09031/0930 LTG DSNT NE SLP081 T00831044
KPHP 080943Z AUTO 09021G27KT 10SM BKN110 09/M06 A2979 RMK AO2 PK WND 09031/0930 LTG DSNT NE AND SE T00941056
KPHP 080928Z AUTO 09020G26KT 10SM VCTS FEW060 SCT120 09/M06 A2980 RMK AO2 PK WND 09029/0909 LTG DSNT NE AND S T00941056
KPHP 080855Z AUTO 09015G28KT 10SM FEW060 09/M05 A2982 RMK AO2 PK WND 11028/0847 LTG DSNT N SLP089 T00941050 56011
KPHP 080755Z AUTO 11017G23KT 10SM FEW100 09/M04 A2983 RMK AO2 PK WND 11028/0712 SLP095 T00941039
KPHP 080655Z AUTO 10019G31KT 10SM CLR 10/M04 A2984 RMK AO2 PK WND 10031/0655 SLP096 T01001044 401941017
KPHP 080555Z AUTO 10017G24KT 10SM CLR 11/M03 A2985 RMK AO2 SLP102 T01061033 10178 20100 58009
KPHP 080455Z AUTO 10016G29KT 10SM CLR 10/M02 A2987 RMK AO2 PK WND 11029/0449 SLP112 T01001022
KPHP 080355Z AUTO 10015KT 10SM CLR 11/M02 A2991 RMK AO2 SLP123 T01111022
KPHP 080255Z AUTO 09017KT 10SM CLR 12/M01 A2988 RMK AO2 PK WND 11027/0201 SLP115 T01221011 55006